sensor_id;sensor_type;location;lat;lon;timestamp;temperature;humidity
21031;DHT22;61072;47.808;7.636;2023-02-05T00:00:25;4.00;99.90
21031;DHT22;61072;47.808;7.636;2023-02-05T00:02:52;4.00;99.90
21031;DHT22;61072;47.808;7.636;2023-02-05T00:05:18;4.00;99.90
21031;DHT22;61072;47.808;7.636;2023-02-05T00:07:45;4.00;99.90
21031;DHT22;61072;47.808;7.636;2023-02-05T00:10:12;4.00;99.90
21031;DHT22;61072;47.808;7.636;2023-02-05T00:12:38;3.90;99.90
21031;DHT22;61072;47.808;7.636;2023-02-05T00:15:05;3.90;99.90
21031;DHT22;61072;47.808;7.636;2023-02-05T00:17:34;3.90;99.90
21031;DHT22;61072;47.808;7.636;2023-02-05T00:20:03;3.90;99.90
21031;DHT22;61072;47.808;7.636;2023-02-05T00:22:30;3.80;99.90
21031;DHT22;61072;47.808;7.636;2023-02-05T00:24:57;3.80;99.90
21031;DHT22;61072;47.808;7.636;2023-02-05T00:27:23;3.80;99.90
21031;DHT22;61072;47.808;7.636;2023-02-05T00:29:50;3.70;99.90
21031;DHT22;61072;47.808;7.636;2023-02-05T00:32:17;3.70;99.90
21031;DHT22;61072;47.808;7.636;2023-02-05T00:34:43;3.60;99.90
21031;DHT22;61072;47.808;7.636;2023-02-05T00:37:10;3.60;99.90
21031;DHT22;61072;47.808;7.636;2023-02-05T00:39:37;3.60;99.90
21031;DHT22;61072;47.808;7.636;2023-02-05T00:42:03;3.60;99.90
21031;DHT22;61072;47.808;7.636;2023-02-05T00:44:30;3.60;99.90
21031;DHT22;61072;47.808;7.636;2023-02-05T00:46:57;3.60;99.90
21031;DHT22;61072;47.808;7.636;2023-02-05T00:49:23;3.50;99.90
21031;DHT22;61072;47.808;7.636;2023-02-05T00:51:50;3.50;99.90
21031;DHT22;61072;47.808;7.636;2023-02-05T00:54:17;3.50;99.90
21031;DHT22;61072;47.808;7.636;2023-02-05T00:56:43;3.50;99.90
21031;DHT22;61072;47.808;7.636;2023-02-05T00:59:10;3.40;99.90
21031;DHT22;61072;47.808;7.636;2023-02-05T01:01:37;3.40;99.90
21031;DHT22;61072;47.808;7.636;2023-02-05T01:04:03;3.40;99.90
21031;DHT22;61072;47.808;7.636;2023-02-05T01:06:30;3.40;99.90
21031;DHT22;61072;47.808;7.636;2023-02-05T01:08:57;3.40;99.90
21031;DHT22;61072;47.808;7.636;2023-02-05T01:11:24;3.40;99.90
21031;DHT22;61072;47.808;7.636;2023-02-05T01:13:50;3.30;99.90
21031;DHT22;61072;47.808;7.636;2023-02-05T01:16:17;3.30;99.90
21031;DHT22;61072;47.808;7.636;2023-02-05T01:18:44;3.30;99.90
21031;DHT22;61072;47.808;7.636;2023-02-05T01:21:11;3.30;99.90
21031;DHT22;61072;47.808;7.636;2023-02-05T01:23:37;3.20;99.90
21031;DHT22;61072;47.808;7.636;2023-02-05T01:26:05;3.20;99.90
21031;DHT22;61072;47.808;7.636;2023-02-05T01:28:31;3.20;99.90
21031;DHT22;61072;47.808;7.636;2023-02-05T01:30:58;3.20;99.90
21031;DHT22;61072;47.808;7.636;2023-02-05T01:33:25;3.20;99.90
21031;DHT22;61072;47.808;7.636;2023-02-05T01:35:52;3.20;99.90
21031;DHT22;61072;47.808;7.636;2023-02-05T01:38:18;3.20;99.90
21031;DHT22;61072;47.808;7.636;2023-02-05T01:40:45;3.20;99.90
21031;DHT22;61072;47.808;7.636;2023-02-05T01:43:16;3.20;99.90
21031;DHT22;61072;47.808;7.636;2023-02-05T01:45:49;3.10;99.90
21031;DHT22;61072;47.808;7.636;2023-02-05T01:48:21;3.10;99.90
21031;DHT22;61072;47.808;7.636;2023-02-05T01:51:02;3.10;99.90
21031;DHT22;61072;47.808;7.636;2023-02-05T01:53:34;3.10;99.90
21031;DHT22;61072;47.808;7.636;2023-02-05T01:56:11;3.10;99.90
21031;DHT22;61072;47.808;7.636;2023-02-05T01:58:46;3.00;99.90
21031;DHT22;61072;47.808;7.636;2023-02-05T02:01:15;3.00;99.90
21031;DHT22;61072;47.808;7.636;2023-02-05T02:03:42;3.00;99.90
21031;DHT22;61072;47.808;7.636;2023-02-05T02:06:09;3.00;99.90
21031;DHT22;61072;47.808;7.636;2023-02-05T02:08:35;3.00;99.90
21031;DHT22;61072;47.808;7.636;2023-02-05T02:11:05;3.00;99.90
21031;DHT22;61072;47.808;7.636;2023-02-05T02:13:33;2.90;99.90
21031;DHT22;61072;47.808;7.636;2023-02-05T02:16:01;3.00;99.90
21031;DHT22;61072;47.808;7.636;2023-02-05T02:18:28;2.90;99.90
21031;DHT22;61072;47.808;7.636;2023-02-05T02:32:10;2.80;99.90
21031;DHT22;61072;47.808;7.636;2023-02-05T02:34:45;2.80;99.90
21031;DHT22;61072;47.808;7.636;2023-02-05T02:37:30;2.80;99.90
21031;DHT22;61072;47.808;7.636;2023-02-05T02:40:10;2.80;99.90
21031;DHT22;61072;47.808;7.636;2023-02-05T02:42:44;2.80;99.90
21031;DHT22;61072;47.808;7.636;2023-02-05T02:45:14;2.70;99.90
21031;DHT22;61072;47.808;7.636;2023-02-05T02:47:46;2.70;99.90
21031;DHT22;61072;47.808;7.636;2023-02-05T02:50:27;2.70;99.90
21031;DHT22;61072;47.808;7.636;2023-02-05T02:53:11;2.70;99.90
21031;DHT22;61072;47.808;7.636;2023-02-05T02:55:41;2.60;99.90
21031;DHT22;61072;47.808;7.636;2023-02-05T02:58:15;2.70;99.90
21031;DHT22;61072;47.808;7.636;2023-02-05T03:00:44;2.60;99.90
21031;DHT22;61072;47.808;7.636;2023-02-05T03:03:14;2.60;99.90
21031;DHT22;61072;47.808;7.636;2023-02-05T03:05:44;2.60;99.90
21031;DHT22;61072;47.808;7.636;2023-02-05T03:08:19;2.60;99.90
21031;DHT22;61072;47.808;7.636;2023-02-05T03:10:58;2.60;99.90
21031;DHT22;61072;47.808;7.636;2023-02-05T03:13:27;2.60;99.90
21031;DHT22;61072;47.808;7.636;2023-02-05T03:15:54;2.60;99.90
21031;DHT22;61072;47.808;7.636;2023-02-05T03:18:21;2.50;99.90
21031;DHT22;61072;47.808;7.636;2023-02-05T03:20:54;2.50;99.90
21031;DHT22;61072;47.808;7.636;2023-02-05T03:23:23;2.50;99.90
21031;DHT22;61072;47.808;7.636;2023-02-05T03:25:51;2.50;99.90
21031;DHT22;61072;47.808;7.636;2023-02-05T03:28:18;2.50;99.90
21031;DHT22;61072;47.808;7.636;2023-02-05T03:31:10;2.40;99.90
21031;DHT22;61072;47.808;7.636;2023-02-05T03:33:57;2.40;99.90
21031;DHT22;61072;47.808;7.636;2023-02-05T03:39:12;2.40;99.90
21031;DHT22;61072;47.808;7.636;2023-02-05T03:41:52;2.40;99.90
21031;DHT22;61072;47.808;7.636;2023-02-05T03:50:36;2.30;99.90
21031;DHT22;61072;47.808;7.636;2023-02-05T03:56:12;2.30;99.90
21031;DHT22;61072;47.808;7.636;2023-02-05T03:58:45;2.30;99.90
21031;DHT22;61072;47.808;7.636;2023-02-05T04:01:13;2.30;99.90
21031;DHT22;61072;47.808;7.636;2023-02-05T04:03:40;2.30;99.90
21031;DHT22;61072;47.808;7.636;2023-02-05T04:06:07;2.30;99.90
21031;DHT22;61072;47.808;7.636;2023-02-05T04:08:34;2.20;99.90
21031;DHT22;61072;47.808;7.636;2023-02-05T04:11:01;2.20;99.90
21031;DHT22;61072;47.808;7.636;2023-02-05T04:13:27;2.20;99.90
21031;DHT22;61072;47.808;7.636;2023-02-05T04:15:54;2.20;99.90
21031;DHT22;61072;47.808;7.636;2023-02-05T04:18:21;2.20;99.90
21031;DHT22;61072;47.808;7.636;2023-02-05T04:20:48;2.20;99.90
21031;DHT22;61072;47.808;7.636;2023-02-05T04:23:14;2.20;99.90
21031;DHT22;61072;47.808;7.636;2023-02-05T04:25:41;2.20;99.90
21031;DHT22;61072;47.808;7.636;2023-02-05T04:28:10;2.20;99.90
21031;DHT22;61072;47.808;7.636;2023-02-05T04:30:38;2.20;99.90
21031;DHT22;61072;47.808;7.636;2023-02-05T04:33:05;2.10;99.90
21031;DHT22;61072;47.808;7.636;2023-02-05T04:35:32;2.10;99.90
21031;DHT22;61072;47.808;7.636;2023-02-05T04:37:59;2.10;99.90
21031;DHT22;61072;47.808;7.636;2023-02-05T04:40:26;2.10;99.90
21031;DHT22;61072;47.808;7.636;2023-02-05T04:42:52;2.20;99.90
21031;DHT22;61072;47.808;7.636;2023-02-05T04:45:19;2.10;99.90
21031;DHT22;61072;47.808;7.636;2023-02-05T04:47:46;2.20;99.90
21031;DHT22;61072;47.808;7.636;2023-02-05T04:50:13;2.20;99.90
21031;DHT22;61072;47.808;7.636;2023-02-05T04:52:39;2.20;99.90
21031;DHT22;61072;47.808;7.636;2023-02-05T04:55:06;2.20;99.90
21031;DHT22;61072;47.808;7.636;2023-02-05T04:57:33;2.10;99.90
21031;DHT22;61072;47.808;7.636;2023-02-05T05:00:00;2.10;99.90
21031;DHT22;61072;47.808;7.636;2023-02-05T05:02:26;2.10;99.90
21031;DHT22;61072;47.808;7.636;2023-02-05T05:04:53;2.10;99.90
21031;DHT22;61072;47.808;7.636;2023-02-05T05:07:20;2.20;99.90
21031;DHT22;61072;47.808;7.636;2023-02-05T05:09:46;2.20;99.90
21031;DHT22;61072;47.808;7.636;2023-02-05T05:12:13;2.20;99.90
21031;DHT22;61072;47.808;7.636;2023-02-05T05:14:40;2.20;99.90
21031;DHT22;61072;47.808;7.636;2023-02-05T05:17:06;2.10;99.90
21031;DHT22;61072;47.808;7.636;2023-02-05T05:19:33;2.00;99.90
21031;DHT22;61072;47.808;7.636;2023-02-05T05:22:00;2.10;99.90
21031;DHT22;61072;47.808;7.636;2023-02-05T05:24:27;2.10;99.90
21031;DHT22;61072;47.808;7.636;2023-02-05T05:26:53;2.10;99.90
21031;DHT22;61072;47.808;7.636;2023-02-05T05:29:20;2.00;99.90
21031;DHT22;61072;47.808;7.636;2023-02-05T05:31:47;1.90;99.90
21031;DHT22;61072;47.808;7.636;2023-02-05T05:34:13;2.00;99.90
21031;DHT22;61072;47.808;7.636;2023-02-05T05:36:40;2.00;99.90
21031;DHT22;61072;47.808;7.636;2023-02-05T05:39:09;2.10;99.90
21031;DHT22;61072;47.808;7.636;2023-02-05T05:41:55;2.10;99.90
21031;DHT22;61072;47.808;7.636;2023-02-05T05:44:40;2.20;99.90
21031;DHT22;61072;47.808;7.636;2023-02-05T05:47:07;2.30;99.90
21031;DHT22;61072;47.808;7.636;2023-02-05T05:49:34;2.30;99.90
21031;DHT22;61072;47.808;7.636;2023-02-05T05:52:00;2.40;99.90
21031;DHT22;61072;47.808;7.636;2023-02-05T05:54:27;2.40;99.90
21031;DHT22;61072;47.808;7.636;2023-02-05T05:56:54;2.50;99.90
21031;DHT22;61072;47.808;7.636;2023-02-05T05:59:20;2.50;99.90
21031;DHT22;61072;47.808;7.636;2023-02-05T06:01:47;2.60;99.90
21031;DHT22;61072;47.808;7.636;2023-02-05T06:04:14;2.60;99.90
21031;DHT22;61072;47.808;7.636;2023-02-05T06:06:40;2.60;99.90
21031;DHT22;61072;47.808;7.636;2023-02-05T06:09:08;2.60;99.90
21031;DHT22;61072;47.808;7.636;2023-02-05T06:11:34;2.70;99.90
21031;DHT22;61072;47.808;7.636;2023-02-05T06:14:01;2.70;99.90
21031;DHT22;61072;47.808;7.636;2023-02-05T06:16:28;2.70;99.90
21031;DHT22;61072;47.808;7.636;2023-02-05T06:18:55;2.70;99.90
21031;DHT22;61072;47.808;7.636;2023-02-05T06:21:22;2.70;99.90
21031;DHT22;61072;47.808;7.636;2023-02-05T06:23:48;2.80;99.90
21031;DHT22;61072;47.808;7.636;2023-02-05T06:26:15;2.80;99.90
21031;DHT22;61072;47.808;7.636;2023-02-05T06:28:42;2.80;99.90
21031;DHT22;61072;47.808;7.636;2023-02-05T06:31:08;2.80;99.90
21031;DHT22;61072;47.808;7.636;2023-02-05T06:33:35;2.80;99.90
21031;DHT22;61072;47.808;7.636;2023-02-05T06:36:02;2.80;99.90
21031;DHT22;61072;47.808;7.636;2023-02-05T06:38:29;2.80;99.90
21031;DHT22;61072;47.808;7.636;2023-02-05T06:40:56;2.90;99.90
21031;DHT22;61072;47.808;7.636;2023-02-05T06:43:22;2.90;99.90
21031;DHT22;61072;47.808;7.636;2023-02-05T06:45:49;2.90;99.90
21031;DHT22;61072;47.808;7.636;2023-02-05T06:48:16;2.90;99.90
21031;DHT22;61072;47.808;7.636;2023-02-05T06:50:43;2.90;99.90
21031;DHT22;61072;47.808;7.636;2023-02-05T06:53:10;3.00;99.90
21031;DHT22;61072;47.808;7.636;2023-02-05T06:55:37;3.00;99.90
21031;DHT22;61072;47.808;7.636;2023-02-05T06:58:04;3.00;99.90
21031;DHT22;61072;47.808;7.636;2023-02-05T07:00:33;3.00;99.90
21031;DHT22;61072;47.808;7.636;2023-02-05T07:03:00;3.10;99.90
21031;DHT22;61072;47.808;7.636;2023-02-05T07:05:27;3.10;99.90
21031;DHT22;61072;47.808;7.636;2023-02-05T07:07:54;3.10;99.90
21031;DHT22;61072;47.808;7.636;2023-02-05T07:10:20;3.10;99.90
21031;DHT22;61072;47.808;7.636;2023-02-05T07:12:47;3.20;99.90
21031;DHT22;61072;47.808;7.636;2023-02-05T07:15:14;3.20;99.90
21031;DHT22;61072;47.808;7.636;2023-02-05T07:17:41;3.20;99.90
21031;DHT22;61072;47.808;7.636;2023-02-05T07:20:08;3.20;99.90
21031;DHT22;61072;47.808;7.636;2023-02-05T07:22:34;3.20;99.90
21031;DHT22;61072;47.808;7.636;2023-02-05T07:25:01;3.30;99.90
21031;DHT22;61072;47.808;7.636;2023-02-05T07:27:30;3.30;99.90
21031;DHT22;61072;47.808;7.636;2023-02-05T07:29:56;3.30;99.90
21031;DHT22;61072;47.808;7.636;2023-02-05T07:32:23;3.30;99.90
21031;DHT22;61072;47.808;7.636;2023-02-05T07:34:50;3.40;99.90
21031;DHT22;61072;47.808;7.636;2023-02-05T07:37:16;3.40;99.90
21031;DHT22;61072;47.808;7.636;2023-02-05T07:39:45;3.40;99.90
21031;DHT22;61072;47.808;7.636;2023-02-05T07:42:12;3.40;99.90
21031;DHT22;61072;47.808;7.636;2023-02-05T07:44:39;3.50;99.90
21031;DHT22;61072;47.808;7.636;2023-02-05T07:47:06;3.50;99.90
21031;DHT22;61072;47.808;7.636;2023-02-05T07:49:32;3.50;99.90
21031;DHT22;61072;47.808;7.636;2023-02-05T07:51:59;3.50;99.90
21031;DHT22;61072;47.808;7.636;2023-02-05T07:54:26;3.50;99.90
21031;DHT22;61072;47.808;7.636;2023-02-05T07:56:52;3.60;99.90
21031;DHT22;61072;47.808;7.636;2023-02-05T07:59:20;3.60;99.90
21031;DHT22;61072;47.808;7.636;2023-02-05T08:01:47;3.60;99.90
21031;DHT22;61072;47.808;7.636;2023-02-05T08:04:14;3.60;99.90
21031;DHT22;61072;47.808;7.636;2023-02-05T08:06:41;3.70;99.90
21031;DHT22;61072;47.808;7.636;2023-02-05T08:09:09;3.70;99.90
21031;DHT22;61072;47.808;7.636;2023-02-05T08:11:36;3.70;99.90
21031;DHT22;61072;47.808;7.636;2023-02-05T08:14:03;3.80;99.90
21031;DHT22;61072;47.808;7.636;2023-02-05T08:16:30;3.80;99.90
21031;DHT22;61072;47.808;7.636;2023-02-05T08:18:57;3.90;99.90
21031;DHT22;61072;47.808;7.636;2023-02-05T08:21:23;3.90;99.90
21031;DHT22;61072;47.808;7.636;2023-02-05T08:23:50;3.90;99.90
21031;DHT22;61072;47.808;7.636;2023-02-05T08:26:17;3.90;99.90
21031;DHT22;61072;47.808;7.636;2023-02-05T08:28:44;4.00;99.90
21031;DHT22;61072;47.808;7.636;2023-02-05T08:31:13;4.00;99.90
21031;DHT22;61072;47.808;7.636;2023-02-05T08:33:40;4.00;99.90
21031;DHT22;61072;47.808;7.636;2023-02-05T08:36:09;4.10;99.90
21031;DHT22;61072;47.808;7.636;2023-02-05T08:38:36;4.10;99.90
21031;DHT22;61072;47.808;7.636;2023-02-05T08:41:04;4.10;99.90
21031;DHT22;61072;47.808;7.636;2023-02-05T08:43:39;4.10;99.90
21031;DHT22;61072;47.808;7.636;2023-02-05T08:46:06;4.10;99.90
21031;DHT22;61072;47.808;7.636;2023-02-05T08:48:33;4.20;99.90
21031;DHT22;61072;47.808;7.636;2023-02-05T08:51:00;4.20;99.90
21031;DHT22;61072;47.808;7.636;2023-02-05T08:53:26;4.20;99.90
21031;DHT22;61072;47.808;7.636;2023-02-05T08:55:58;4.30;99.90
21031;DHT22;61072;47.808;7.636;2023-02-05T08:58:26;4.30;99.90
21031;DHT22;61072;47.808;7.636;2023-02-05T09:00:59;4.40;99.90
21031;DHT22;61072;47.808;7.636;2023-02-05T09:03:26;4.40;99.90
21031;DHT22;61072;47.808;7.636;2023-02-05T09:05:53;4.40;99.90
21031;DHT22;61072;47.808;7.636;2023-02-05T09:08:19;4.40;99.90
21031;DHT22;61072;47.808;7.636;2023-02-05T09:10:46;4.50;99.90
21031;DHT22;61072;47.808;7.636;2023-02-05T09:13:13;4.50;99.90
21031;DHT22;61072;47.808;7.636;2023-02-05T09:15:44;4.50;99.90
21031;DHT22;61072;47.808;7.636;2023-02-05T09:18:14;4.60;99.90
21031;DHT22;61072;47.808;7.636;2023-02-05T09:20:46;4.60;99.90
21031;DHT22;61072;47.808;7.636;2023-02-05T09:23:15;4.60;99.90
21031;DHT22;61072;47.808;7.636;2023-02-05T09:25:42;4.70;99.90
21031;DHT22;61072;47.808;7.636;2023-02-05T09:28:11;4.70;99.90
21031;DHT22;61072;47.808;7.636;2023-02-05T09:30:41;4.80;99.90
21031;DHT22;61072;47.808;7.636;2023-02-05T09:33:09;4.90;99.90
21031;DHT22;61072;47.808;7.636;2023-02-05T09:35:36;4.90;99.90
21031;DHT22;61072;47.808;7.636;2023-02-05T09:38:03;5.00;99.90
21031;DHT22;61072;47.808;7.636;2023-02-05T09:41:00;5.00;99.90
21031;DHT22;61072;47.808;7.636;2023-02-05T09:46:21;5.10;99.90
21031;DHT22;61072;47.808;7.636;2023-02-05T09:51:43;5.20;99.90
21031;DHT22;61072;47.808;7.636;2023-02-05T09:54:23;5.30;99.90
21031;DHT22;61072;47.808;7.636;2023-02-05T09:56:54;5.30;99.90
21031;DHT22;61072;47.808;7.636;2023-02-05T09:59:24;5.30;99.90
21031;DHT22;61072;47.808;7.636;2023-02-05T10:01:55;5.30;99.90
21031;DHT22;61072;47.808;7.636;2023-02-05T10:04:22;5.40;99.90
21031;DHT22;61072;47.808;7.636;2023-02-05T10:07:11;5.40;99.90
21031;DHT22;61072;47.808;7.636;2023-02-05T10:09:54;5.40;99.90
21031;DHT22;61072;47.808;7.636;2023-02-05T10:15:46;5.40;99.90
21031;DHT22;61072;47.808;7.636;2023-02-05T10:18:38;5.40;99.90
21031;DHT22;61072;47.808;7.636;2023-02-05T10:26:49;5.50;99.90
21031;DHT22;61072;47.808;7.636;2023-02-05T10:29:49;5.50;99.90
21031;DHT22;61072;47.808;7.636;2023-02-05T10:32:31;5.50;99.90
21031;DHT22;61072;47.808;7.636;2023-02-05T10:35:42;5.50;99.90
21031;DHT22;61072;47.808;7.636;2023-02-05T10:38:22;5.50;99.90
21031;DHT22;61072;47.808;7.636;2023-02-05T10:40:57;5.50;99.90
21031;DHT22;61072;47.808;7.636;2023-02-05T10:45:55;5.50;99.90
21031;DHT22;61072;47.808;7.636;2023-02-05T10:51:12;5.50;99.90
21031;DHT22;61072;47.808;7.636;2023-02-05T10:53:40;5.50;99.90
21031;DHT22;61072;47.808;7.636;2023-02-05T10:56:10;5.50;99.90
21031;DHT22;61072;47.808;7.636;2023-02-05T10:58:53;5.60;99.90
21031;DHT22;61072;47.808;7.636;2023-02-05T11:01:25;5.60;99.90
21031;DHT22;61072;47.808;7.636;2023-02-05T11:06:36;5.60;99.90
21031;DHT22;61072;47.808;7.636;2023-02-05T11:12:04;5.60;99.90
21031;DHT22;61072;47.808;7.636;2023-02-05T11:14:35;5.60;99.90
21031;DHT22;61072;47.808;7.636;2023-02-05T11:17:32;5.50;99.90
21031;DHT22;61072;47.808;7.636;2023-02-05T11:20:10;5.50;99.90
21031;DHT22;61072;47.808;7.636;2023-02-05T11:22:46;5.50;99.90
21031;DHT22;61072;47.808;7.636;2023-02-05T11:27:58;5.50;99.90
21031;DHT22;61072;47.808;7.636;2023-02-05T11:36:03;5.50;99.90
21031;DHT22;61072;47.808;7.636;2023-02-05T11:38:32;5.60;99.90
21031;DHT22;61072;47.808;7.636;2023-02-05T11:41:02;5.60;99.90
21031;DHT22;61072;47.808;7.636;2023-02-05T11:43:35;5.60;99.90
21031;DHT22;61072;47.808;7.636;2023-02-05T11:46:07;5.60;99.90
21031;DHT22;61072;47.808;7.636;2023-02-05T11:49:00;5.70;99.90
21031;DHT22;61072;47.808;7.636;2023-02-05T11:54:03;5.80;99.90
21031;DHT22;61072;47.808;7.636;2023-02-05T11:56:31;5.80;99.90
21031;DHT22;61072;47.808;7.636;2023-02-05T11:59:15;5.90;99.90
21031;DHT22;61072;47.808;7.636;2023-02-05T12:01:43;5.90;99.90
21031;DHT22;61072;47.808;7.636;2023-02-05T12:06:52;6.00;99.90
21031;DHT22;61072;47.808;7.636;2023-02-05T12:09:24;6.10;99.90
21031;DHT22;61072;47.808;7.636;2023-02-05T12:28:01;6.30;99.90
21031;DHT22;61072;47.808;7.636;2023-02-05T12:34:05;6.40;99.90
21031;DHT22;61072;47.808;7.636;2023-02-05T12:58:12;6.80;99.90
21031;DHT22;61072;47.808;7.636;2023-02-05T13:00:49;6.80;99.90
21031;DHT22;61072;47.808;7.636;2023-02-05T13:03:33;6.80;99.90
21031;DHT22;61072;47.808;7.636;2023-02-05T13:06:18;6.80;99.90
21031;DHT22;61072;47.808;7.636;2023-02-05T13:08:52;6.70;99.90
21031;DHT22;61072;47.808;7.636;2023-02-05T13:11:25;6.80;99.90
21031;DHT22;61072;47.808;7.636;2023-02-05T13:14:11;6.80;99.90
21031;DHT22;61072;47.808;7.636;2023-02-05T13:16:44;6.80;99.90
21031;DHT22;61072;47.808;7.636;2023-02-05T13:19:36;6.80;99.90
21031;DHT22;61072;47.808;7.636;2023-02-05T13:25:35;6.70;99.90
21031;DHT22;61072;47.808;7.636;2023-02-05T13:33:52;6.60;99.90
21031;DHT22;61072;47.808;7.636;2023-02-05T13:44:18;6.40;99.90
21031;DHT22;61072;47.808;7.636;2023-02-05T13:55:57;6.30;99.90
21031;DHT22;61072;47.808;7.636;2023-02-05T13:58:53;6.30;99.90
21031;DHT22;61072;47.808;7.636;2023-02-05T14:01:20;6.30;99.90
21031;DHT22;61072;47.808;7.636;2023-02-05T14:04:04;6.20;99.90
21031;DHT22;61072;47.808;7.636;2023-02-05T14:06:37;6.20;99.90
21031;DHT22;61072;47.808;7.636;2023-02-05T14:09:07;6.20;99.90
21031;DHT22;61072;47.808;7.636;2023-02-05T14:12:05;6.10;99.90
21031;DHT22;61072;47.808;7.636;2023-02-05T14:14:37;6.10;99.90
21031;DHT22;61072;47.808;7.636;2023-02-05T14:22:55;6.10;99.90
21031;DHT22;61072;47.808;7.636;2023-02-05T14:33:38;6.10;99.90
21031;DHT22;61072;47.808;7.636;2023-02-05T14:38:43;6.10;99.90
21031;DHT22;61072;47.808;7.636;2023-02-05T14:41:11;6.10;99.90
21031;DHT22;61072;47.808;7.636;2023-02-05T14:43:40;6.10;99.90
21031;DHT22;61072;47.808;7.636;2023-02-05T14:46:30;6.10;99.90
21031;DHT22;61072;47.808;7.636;2023-02-05T14:48:59;6.20;99.90
21031;DHT22;61072;47.808;7.636;2023-02-05T14:51:39;6.20;99.90
21031;DHT22;61072;47.808;7.636;2023-02-05T14:54:18;6.20;99.90
21031;DHT22;61072;47.808;7.636;2023-02-05T14:57:07;6.20;99.90
21031;DHT22;61072;47.808;7.636;2023-02-05T14:59:57;6.20;99.90
21031;DHT22;61072;47.808;7.636;2023-02-05T15:13:28;6.20;99.90
21031;DHT22;61072;47.808;7.636;2023-02-05T15:18:50;6.20;99.90
21031;DHT22;61072;47.808;7.636;2023-02-05T15:24:05;6.20;99.90
21031;DHT22;61072;47.808;7.636;2023-02-05T15:26:51;6.20;99.90
21031;DHT22;61072;47.808;7.636;2023-02-05T15:31:54;6.20;99.90
21031;DHT22;61072;47.808;7.636;2023-02-05T15:37:24;5.70;99.90
21031;DHT22;61072;47.808;7.636;2023-02-05T15:40:00;5.40;99.90
21031;DHT22;61072;47.808;7.636;2023-02-05T15:42:33;5.20;99.90
21031;DHT22;61072;47.808;7.636;2023-02-05T15:45:25;5.20;99.90
21031;DHT22;61072;47.808;7.636;2023-02-05T15:48:13;5.10;99.90
21031;DHT22;61072;47.808;7.636;2023-02-05T15:56:12;5.00;99.90
21031;DHT22;61072;47.808;7.636;2023-02-05T15:58:46;5.00;99.90
21031;DHT22;61072;47.808;7.636;2023-02-05T16:01:31;5.00;99.90
21031;DHT22;61072;47.808;7.636;2023-02-05T16:03:59;5.00;99.90
21031;DHT22;61072;47.808;7.636;2023-02-05T16:06:28;5.00;99.90
21031;DHT22;61072;47.808;7.636;2023-02-05T16:08:55;4.90;99.90
21031;DHT22;61072;47.808;7.636;2023-02-05T16:11:31;4.90;99.90
21031;DHT22;61072;47.808;7.636;2023-02-05T16:14:31;4.70;99.90
21031;DHT22;61072;47.808;7.636;2023-02-05T16:17:29;4.60;99.90
21031;DHT22;61072;47.808;7.636;2023-02-05T16:22:50;4.60;99.90
21031;DHT22;61072;47.808;7.636;2023-02-05T16:27:51;4.70;99.90
21031;DHT22;61072;47.808;7.636;2023-02-05T16:30:30;4.70;99.90
21031;DHT22;61072;47.808;7.636;2023-02-05T16:32:59;4.80;99.90
21031;DHT22;61072;47.808;7.636;2023-02-05T16:35:34;4.80;99.90
21031;DHT22;61072;47.808;7.636;2023-02-05T16:38:03;4.90;99.90
21031;DHT22;61072;47.808;7.636;2023-02-05T16:40:40;4.90;99.90
21031;DHT22;61072;47.808;7.636;2023-02-05T16:43:37;4.90;99.90
21031;DHT22;61072;47.808;7.636;2023-02-05T16:53:52;4.90;99.90
21031;DHT22;61072;47.808;7.636;2023-02-05T16:56:31;4.90;99.90
21031;DHT22;61072;47.808;7.636;2023-02-05T16:59:01;4.80;99.90
21031;DHT22;61072;47.808;7.636;2023-02-05T17:01:36;4.80;99.90
21031;DHT22;61072;47.808;7.636;2023-02-05T17:04:04;4.80;99.90
21031;DHT22;61072;47.808;7.636;2023-02-05T17:06:35;4.70;99.90
21031;DHT22;61072;47.808;7.636;2023-02-05T17:09:04;4.70;99.90
21031;DHT22;61072;47.808;7.636;2023-02-05T17:11:36;4.70;99.90
21031;DHT22;61072;47.808;7.636;2023-02-05T17:14:31;4.70;99.90
21031;DHT22;61072;47.808;7.636;2023-02-05T17:17:14;4.70;99.90
21031;DHT22;61072;47.808;7.636;2023-02-05T17:19:42;4.60;99.90
21031;DHT22;61072;47.808;7.636;2023-02-05T17:24:48;4.70;99.90
21031;DHT22;61072;47.808;7.636;2023-02-05T17:27:28;4.70;99.90
21031;DHT22;61072;47.808;7.636;2023-02-05T17:29:56;4.70;99.90
21031;DHT22;61072;47.808;7.636;2023-02-05T17:32:25;4.70;99.90
21031;DHT22;61072;47.808;7.636;2023-02-05T17:34:52;4.70;99.90
21031;DHT22;61072;47.808;7.636;2023-02-05T17:37:18;4.70;99.90
21031;DHT22;61072;47.808;7.636;2023-02-05T17:39:45;4.70;99.90
21031;DHT22;61072;47.808;7.636;2023-02-05T17:42:21;4.80;99.90
21031;DHT22;61072;47.808;7.636;2023-02-05T17:44:49;4.70;99.90
21031;DHT22;61072;47.808;7.636;2023-02-05T17:47:16;4.80;99.90
21031;DHT22;61072;47.808;7.636;2023-02-05T17:49:44;4.90;99.90
21031;DHT22;61072;47.808;7.636;2023-02-05T17:52:11;4.80;99.90
21031;DHT22;61072;47.808;7.636;2023-02-05T17:54:37;4.90;99.90
21031;DHT22;61072;47.808;7.636;2023-02-05T17:57:14;4.90;99.90
21031;DHT22;61072;47.808;7.636;2023-02-05T17:59:42;4.90;99.90
21031;DHT22;61072;47.808;7.636;2023-02-05T18:02:11;5.00;99.90
21031;DHT22;61072;47.808;7.636;2023-02-05T18:04:39;4.90;99.90
21031;DHT22;61072;47.808;7.636;2023-02-05T18:07:30;4.90;99.90
21031;DHT22;61072;47.808;7.636;2023-02-05T18:09:58;4.90;99.90
21031;DHT22;61072;47.808;7.636;2023-02-05T18:12:25;4.90;99.90
21031;DHT22;61072;47.808;7.636;2023-02-05T18:14:52;4.90;99.90
21031;DHT22;61072;47.808;7.636;2023-02-05T18:17:19;5.00;99.90
21031;DHT22;61072;47.808;7.636;2023-02-05T18:19:46;5.00;99.90
21031;DHT22;61072;47.808;7.636;2023-02-05T18:22:13;5.00;99.90
21031;DHT22;61072;47.808;7.636;2023-02-05T18:24:40;5.00;99.90
21031;DHT22;61072;47.808;7.636;2023-02-05T18:27:07;5.00;99.90
21031;DHT22;61072;47.808;7.636;2023-02-05T18:29:34;5.10;99.90
21031;DHT22;61072;47.808;7.636;2023-02-05T18:32:01;5.10;99.90
21031;DHT22;61072;47.808;7.636;2023-02-05T18:34:28;5.10;99.90
21031;DHT22;61072;47.808;7.636;2023-02-05T18:36:55;5.10;99.90
21031;DHT22;61072;47.808;7.636;2023-02-05T18:39:22;5.10;99.90
21031;DHT22;61072;47.808;7.636;2023-02-05T18:41:54;5.10;99.90
21031;DHT22;61072;47.808;7.636;2023-02-05T18:44:21;5.10;99.90
21031;DHT22;61072;47.808;7.636;2023-02-05T18:46:48;5.10;99.90
21031;DHT22;61072;47.808;7.636;2023-02-05T18:49:14;5.10;99.90
21031;DHT22;61072;47.808;7.636;2023-02-05T18:51:41;5.20;99.90
21031;DHT22;61072;47.808;7.636;2023-02-05T18:54:08;5.20;99.90
21031;DHT22;61072;47.808;7.636;2023-02-05T18:56:35;5.20;99.90
21031;DHT22;61072;47.808;7.636;2023-02-05T18:59:04;5.20;99.90
21031;DHT22;61072;47.808;7.636;2023-02-05T19:01:34;5.20;99.90
21031;DHT22;61072;47.808;7.636;2023-02-05T19:04:07;5.20;99.90
21031;DHT22;61072;47.808;7.636;2023-02-05T19:06:34;5.20;99.90
21031;DHT22;61072;47.808;7.636;2023-02-05T19:09:02;5.20;99.90
21031;DHT22;61072;47.808;7.636;2023-02-05T19:11:29;5.20;99.90
21031;DHT22;61072;47.808;7.636;2023-02-05T19:13:58;5.10;99.90
21031;DHT22;61072;47.808;7.636;2023-02-05T19:16:26;5.00;99.90